Time;durP1;ratioP1;P1;durP2;ratioP2;P2;SDS_P1;SDS_P2;PMS_P1;PMS_P2;Temp;Humidity;BMP_temperature;BMP_pressure;BME280_temperature;BME280_humidity;BME280_pressure;Samples;Min_cycle;Max_cycle;Signal;HPM_P1;HPM_P2
2021/06/14 00:00:19;;;;;;;2.15;1.27;;;21.00;62.60;;;;;;5097992;28;20070;-66
2021/06/14 00:02:48;;;;;;;3.80;1.30;;;20.90;62.60;;;;;;5114428;28;20492;-68
2021/06/14 00:05:18;;;;;;;3.30;1.38;;;20.90;62.70;;;;;;5108096;27;20051;-69
2021/06/14 00:07:47;;;;;;;3.10;1.20;;;20.80;62.70;;;;;;5098948;27;20043;-67
2021/06/14 00:10:15;;;;;;;1.88;1.25;;;20.80;62.70;;;;;;5117549;27;20052;-69
2021/06/14 00:12:43;;;;;;;2.80;1.40;;;20.80;62.90;;;;;;5115204;28;20066;-69
2021/06/14 00:15:12;;;;;;;3.08;1.27;;;20.80;63.30;;;;;;5114565;28;20051;-69
2021/06/14 00:17:40;;;;;;;2.05;1.15;;;20.80;63.90;;;;;;5098054;28;20055;-66
2021/06/14 00:20:12;;;;;;;4.00;1.38;;;20.70;64.50;;;;;;5115424;28;20070;-68
2021/06/14 00:22:42;;;;;;;2.03;1.20;;;20.60;64.80;;;;;;5116962;28;20425;-65
2021/06/14 00:25:12;;;;;;;8.85;1.50;;;20.60;65.00;;;;;;5115390;28;20039;-66
2021/06/14 00:27:40;;;;;;;1.50;1.15;;;20.50;65.20;;;;;;5116004;28;20449;-69
2021/06/14 00:30:09;;;;;;;3.17;1.20;;;20.40;65.20;;;;;;5114601;28;20044;-67
2021/06/14 00:32:37;;;;;;;4.32;1.70;;;20.40;65.40;;;;;;5097277;28;20066;-69
2021/06/14 00:35:06;;;;;;;3.42;1.40;;;20.30;65.40;;;;;;5096148;28;20047;-67
2021/06/14 00:37:34;;;;;;;2.05;1.27;;;20.30;65.40;;;;;;5114009;28;20051;-66
2021/06/14 00:40:04;;;;;;;2.00;1.40;;;20.30;65.50;;;;;;5114948;28;20044;-70
2021/06/14 00:42:32;;;;;;;4.40;1.73;;;20.30;65.60;;;;;;5134555;28;20555;-69
2021/06/14 00:45:00;;;;;;;2.17;1.60;;;20.20;65.40;;;;;;5135602;28;20047;-69
2021/06/14 00:47:28;;;;;;;3.30;1.50;;;20.20;65.20;;;;;;5136367;27;20248;-66
2021/06/14 00:49:56;;;;;;;4.90;1.88;;;20.20;65.00;;;;;;5138537;27;20039;-67
2021/06/14 00:52:24;;;;;;;2.70;1.50;;;20.20;64.90;;;;;;5139849;27;20051;-66
2021/06/14 00:54:52;;;;;;;1.58;1.33;;;20.10;64.90;;;;;;5103548;27;20059;-68
2021/06/14 00:57:21;;;;;;;1.92;1.70;;;20.10;64.90;;;;;;5139983;27;20054;-67
2021/06/14 00:59:49;;;;;;;5.53;2.22;;;20.10;65.00;;;;;;5121493;27;20078;-69
2021/06/14 01:02:23;;;;;;;5.72;1.98;;;20.00;65.10;;;;;;5117637;27;20039;-69
2021/06/14 01:04:53;;;;;;;5.82;2.20;;;20.00;65.30;;;;;;5121196;27;20054;-68
2021/06/14 01:07:23;;;;;;;2.58;1.83;;;20.00;65.40;;;;;;5139805;27;20452;-68
2021/06/14 01:09:52;;;;;;;3.20;2.05;;;19.90;65.60;;;;;;5138236;27;20062;-68
2021/06/14 01:12:26;;;;;;;4.13;2.40;;;19.90;65.80;;;;;;5097899;28;20070;-70
2021/06/14 01:15:04;;;;;;;3.75;2.35;;;19.80;66.00;;;;;;5095450;28;20051;-69
2021/06/14 01:18:09;;;;;;;2.30;2.00;;;19.80;66.30;;;;;;5097410;28;20063;-68
2021/06/14 01:20:59;;;;;;;3.50;2.30;;;19.80;66.50;;;;;;5095986;28;20052;-67
2021/06/14 01:23:57;;;;;;;5.32;2.10;;;19.80;66.60;;;;;;5096907;28;20044;-69
2021/06/14 01:26:40;;;;;;;5.22;2.42;;;19.70;67.10;;;;;;5097772;28;20056;-66
2021/06/14 01:29:12;;;;;;;3.42;2.30;;;19.70;67.30;;;;;;5079566;28;20051;-68
2021/06/14 01:31:43;;;;;;;3.53;2.40;;;19.60;67.50;;;;;;5097385;28;20059;-67
2021/06/14 01:34:13;;;;;;;6.90;2.47;;;19.60;67.70;;;;;;5097534;28;20040;-69
2021/06/14 01:36:44;;;;;;;6.95;2.50;;;19.60;67.90;;;;;;5096340;28;20048;-69
2021/06/14 01:39:13;;;;;;;7.35;2.10;;;19.60;68.00;;;;;;5096802;28;20059;-67
2021/06/14 01:41:45;;;;;;;3.80;2.35;;;19.60;68.10;;;;;;5095841;28;20059;-69
2021/06/14 01:44:17;;;;;;;;;;;19.60;68.20;;;;;;5098492;28;20048;-69
2021/06/14 01:46:50;;;;;;;3.90;2.33;;;19.60;68.20;;;;;;5097084;28;19920;-67
2021/06/14 01:49:20;;;;;;;5.30;2.22;;;19.60;68.10;;;;;;5095998;28;20040;-67
2021/06/14 01:51:54;;;;;;;3.60;2.20;;;19.50;68.20;;;;;;5096731;28;20065;-69
2021/06/14 01:54:26;;;;;;;3.72;2.22;;;19.50;68.30;;;;;;5097006;28;20043;-69
2021/06/14 01:57:02;;;;;;;4.35;2.20;;;19.50;68.40;;;;;;5097273;28;20373;-69
2021/06/14 01:59:51;;;;;;;7.75;2.42;;;19.50;68.50;;;;;;5097030;28;20047;-67
2021/06/14 02:02:29;;;;;;;4.13;2.40;;;19.40;68.50;;;;;;5095510;28;20378;-67
2021/06/14 02:05:07;;;;;;;3.45;2.53;;;19.40;68.60;;;;;;5096685;28;20040;-68
2021/06/14 02:07:36;;;;;;;3.83;2.58;;;19.40;68.70;;;;;;5097695;28;20044;-69
2021/06/14 02:10:06;;;;;;;6.00;2.40;;;19.30;68.90;;;;;;5078538;28;20063;-68
2021/06/14 02:12:39;;;;;;;4.45;2.42;;;19.30;68.90;;;;;;5076803;28;20466;-67
2021/06/14 02:15:09;;;;;;;3.45;2.30;;;19.30;69.00;;;;;;5075264;28;20052;-69
2021/06/14 02:17:41;;;;;;;4.85;2.40;;;19.30;69.00;;;;;;5077131;28;20044;-68
2021/06/14 02:20:10;;;;;;;5.63;2.45;;;19.30;69.00;;;;;;5078874;28;20068;-66
2021/06/14 02:22:40;;;;;;;3.78;2.30;;;19.20;69.00;;;;;;5075824;28;20052;-66
2021/06/14 02:25:11;;;;;;;6.50;2.10;;;19.20;69.00;;;;;;5077080;28;20049;-66
2021/06/14 02:27:40;;;;;;;4.60;2.50;;;19.20;69.00;;;;;;5076303;28;20044;-68
2021/06/14 02:30:22;;;;;;;3.95;2.40;;;19.20;69.00;;;;;;5074654;28;20044;-67
2021/06/14 02:32:50;;;;;;;4.00;2.33;;;19.10;69.10;;;;;;5076635;28;20052;-67
2021/06/14 02:35:21;;;;;;;5.70;2.13;;;19.10;69.00;;;;;;5074644;28;20059;-67
2021/06/14 02:37:56;;;;;;;3.58;1.90;;;19.10;69.10;;;;;;5076283;28;20052;-66
2021/06/14 02:40:29;;;;;;;5.00;2.30;;;19.10;69.00;;;;;;5095922;28;20055;-69
2021/06/14 02:43:05;;;;;;;4.65;2.10;;;19.10;68.90;;;;;;5078146;28;20063;-68
2021/06/14 02:45:37;;;;;;;3.33;1.90;;;19.00;68.90;;;;;;5078546;28;20051;-66
2021/06/14 02:48:15;;;;;;;2.33;1.60;;;19.00;68.80;;;;;;5075507;28;20463;-66
2021/06/14 02:50:45;;;;;;;2.67;1.88;;;19.00;68.70;;;;;;5075950;28;20055;-67
2021/06/14 02:53:15;;;;;;;4.68;2.03;;;19.00;68.60;;;;;;5079880;28;20045;-69
2021/06/14 02:56:02;;;;;;;3.30;2.00;;;19.00;68.40;;;;;;5088802;28;20059;-69
2021/06/14 02:58:37;;;;;;;3.05;1.83;;;18.90;68.30;;;;;;5095936;28;20075;-68
2021/06/14 03:01:09;;;;;;;3.80;1.92;;;18.90;68.20;;;;;;5095336;28;20382;-68
2021/06/14 03:03:42;;;;;;;5.78;2.28;;;18.90;68.20;;;;;;5095943;28;20129;-69
2021/06/14 03:06:16;;;;;;;6.47;1.80;;;18.90;68.10;;;;;;5094530;28;20059;-69
2021/06/14 03:08:48;;;;;;;;;;;18.90;68.00;;;;;;5094536;28;20040;-68
2021/06/14 03:11:20;;;;;;;3.03;1.90;;;18.90;68.00;;;;;;5100614;28;19919;-69
2021/06/14 03:13:49;;;;;;;3.85;2.15;;;18.80;68.00;;;;;;5098780;28;20338;-66
2021/06/14 03:16:22;;;;;;;3.65;1.83;;;18.80;67.90;;;;;;5097352;28;20485;-67
2021/06/14 03:18:53;;;;;;;3.72;1.73;;;18.80;68.00;;;;;;5098557;28;20040;-67
2021/06/14 03:21:23;;;;;;;1.98;1.42;;;18.80;68.00;;;;;;5097118;28;20054;-69
2021/06/14 03:23:52;;;;;;;5.15;2.15;;;18.70;68.00;;;;;;5115888;28;20078;-69
2021/06/14 03:26:27;;;;;;;3.88;1.70;;;18.70;68.00;;;;;;5082273;28;20043;-69
2021/06/14 03:28:57;;;;;;;2.50;1.33;;;18.70;67.60;;;;;;5098902;28;20051;-66
2021/06/14 03:31:28;;;;;;;4.38;1.60;;;18.60;67.20;;;;;;5116521;28;20449;-69
2021/06/14 03:33:57;;;;;;;3.42;1.38;;;18.60;66.30;;;;;;5115721;28;20050;-68
2021/06/14 03:36:31;;;;;;;2.55;1.20;;;18.50;65.70;;;;;;5114595;28;20393;-67
2021/06/14 03:39:01;;;;;;;4.63;1.20;;;18.50;65.20;;;;;;5116326;28;20052;-69
2021/06/14 03:41:29;;;;;;;3.97;1.73;;;18.50;64.50;;;;;;5113743;28;20393;-69
2021/06/14 03:44:01;;;;;;;2.75;1.27;;;18.40;64.00;;;;;;5116121;28;20059;-67
2021/06/14 03:46:29;;;;;;;3.83;1.30;;;18.40;63.20;;;;;;5116011;28;20762;-69
2021/06/14 03:48:58;;;;;;;2.08;1.20;;;18.30;62.90;;;;;;5114994;28;20048;-69
2021/06/14 03:51:26;;;;;;;2.05;1.30;;;18.30;62.70;;;;;;5115515;28;20051;-70
2021/06/14 03:53:56;;;;;;;2.72;1.40;;;18.30;62.50;;;;;;5115876;28;20059;-67
2021/06/14 03:56:29;;;;;;;2.67;1.20;;;18.30;62.50;;;;;;5097028;28;20040;-70
2021/06/14 03:58:58;;;;;;;;;;;18.30;62.50;;;;;;5116487;28;20044;-69
2021/06/14 04:01:27;;;;;;;2.05;1.30;;;18.30;62.60;;;;;;5096500;28;19920;-68
2021/06/14 04:06:36;;;;;;;2.95;1.35;;;18.20;62.40;;;;;;5097622;28;20051;-68
2021/06/14 04:09:06;;;;;;;1.73;1.27;;;18.20;62.40;;;;;;5096538;28;20055;-67
2021/06/14 04:11:35;;;;;;;4.95;1.23;;;18.20;62.40;;;;;;5129567;27;20054;-67
2021/06/14 04:14:02;;;;;;;1.90;1.17;;;18.10;62.40;;;;;;5115174;28;20466;-67
2021/06/14 04:16:30;;;;;;;2.08;1.10;;;18.10;62.40;;;;;;5114666;28;20039;-68
2021/06/14 04:18:58;;;;;;;3.85;1.40;;;18.10;62.30;;;;;;5115116;28;20048;-69
2021/06/14 04:21:26;;;;;;;1.92;1.25;;;18.10;62.40;;;;;;5114400;28;20048;-66
2021/06/14 04:23:54;;;;;;;3.38;1.52;;;18.00;62.40;;;;;;5113765;28;20055;-66
2021/06/14 04:26:22;;;;;;;2.47;1.42;;;18.00;62.50;;;;;;5117584;28;20062;-67
2021/06/14 04:28:51;;;;;;;2.70;1.40;;;17.90;62.60;;;;;;5114255;28;20047;-65
2021/06/14 04:31:19;;;;;;;3.33;1.40;;;17.90;62.70;;;;;;5097771;28;20392;-66
2021/06/14 04:33:48;;;;;;;2.97;1.20;;;17.80;62.80;;;;;;5115192;28;20054;-67
2021/06/14 04:36:16;;;;;;;1.30;1.20;;;17.80;62.90;;;;;;5113009;28;20063;-67
2021/06/14 04:38:45;;;;;;;1.48;1.30;;;17.80;63.00;;;;;;5115657;28;20484;-67
2021/06/14 04:41:12;;;;;;;6.38;1.67;;;17.80;63.00;;;;;;5124780;28;20074;-66
2021/06/14 04:43:41;;;;;;;1.60;1.50;;;17.90;63.10;;;;;;5135813;28;20058;-67
2021/06/14 04:46:09;;;;;;;4.60;1.90;;;17.80;63.10;;;;;;5135498;28;20059;-69
2021/06/14 04:48:37;;;;;;;1.92;1.40;;;17.90;63.20;;;;;;5127654;28;20058;-69
2021/06/14 04:51:05;;;;;;;2.38;1.52;;;17.90;63.30;;;;;;5126249;28;20051;-67
2021/06/14 04:53:33;;;;;;;3.03;1.80;;;17.90;63.40;;;;;;5135515;28;20047;-69
2021/06/14 04:56:01;;;;;;;3.10;1.50;;;17.90;63.50;;;;;;5135092;28;20055;-66
2021/06/14 04:58:29;;;;;;;4.97;1.50;;;17.80;63.60;;;;;;5136048;28;20055;-67
2021/06/14 05:00:57;;;;;;;4.60;1.40;;;17.80;63.70;;;;;;5135804;28;20133;-67
2021/06/14 05:03:26;;;;;;;4.97;1.80;;;17.80;63.90;;;;;;5116862;28;20372;-67
2021/06/14 05:05:54;;;;;;;3.05;2.00;;;17.80;64.00;;;;;;5132054;28;20074;-69
2021/06/14 05:08:22;;;;;;;5.28;1.60;;;17.80;64.20;;;;;;5134271;28;20054;-67
2021/06/14 05:10:50;;;;;;;3.70;1.50;;;17.80;64.40;;;;;;5128467;28;20056;-69
2021/06/14 05:13:18;;;;;;;2.83;1.60;;;17.80;64.50;;;;;;5115076;28;20438;-66
2021/06/14 05:15:46;;;;;;;2.35;1.55;;;17.80;64.60;;;;;;5113053;28;20058;-67
2021/06/14 05:18:14;;;;;;;1.98;1.30;;;17.80;64.50;;;;;;5114516;28;20066;-67
2021/06/14 05:20:43;;;;;;;3.80;1.30;;;17.80;64.60;;;;;;5114618;28;20378;-69
2021/06/14 05:23:11;;;;;;;1.83;1.38;;;17.80;64.50;;;;;;5113795;28;20048;-67
2021/06/14 05:25:39;;;;;;;2.28;1.63;;;17.80;64.40;;;;;;5115190;28;20051;-66
2021/06/14 05:28:07;;;;;;;4.57;1.55;;;17.80;64.40;;;;;;5095883;28;20044;-70
2021/06/14 05:30:35;;;;;;;2.50;1.58;;;17.90;64.40;;;;;;5114573;28;20051;-66
2021/06/14 05:33:03;;;;;;;4.68;1.30;;;17.90;64.50;;;;;;5115003;28;20036;-66
2021/06/14 05:35:32;;;;;;;2.22;1.60;;;17.90;64.40;;;;;;5115457;28;20062;-68
2021/06/14 05:38:00;;;;;;;4.05;1.60;;;17.90;64.20;;;;;;5118470;28;20058;-66
2021/06/14 05:40:30;;;;;;;3.00;1.73;;;17.90;64.10;;;;;;5117661;28;20056;-69
2021/06/14 05:42:58;;;;;;;2.50;1.52;;;17.90;64.00;;;;;;5116817;28;20055;-66
2021/06/14 05:45:26;;;;;;;2.90;1.60;;;17.90;63.90;;;;;;5118316;28;20052;-67
2021/06/14 05:47:54;;;;;;;3.25;1.52;;;17.90;63.90;;;;;;5099221;28;20442;-68
2021/06/14 05:50:23;;;;;;;2.35;1.70;;;17.90;63.90;;;;;;5100697;28;20065;-66
2021/06/14 05:52:51;;;;;;;2.08;1.42;;;17.90;64.00;;;;;;5119381;27;20441;-67
2021/06/14 05:55:19;;;;;;;4.90;1.65;;;17.90;64.00;;;;;;5110568;28;20043;-64
2021/06/14 05:57:47;;;;;;;6.28;1.83;;;17.90;64.10;;;;;;5118864;28;20055;-68
2021/06/14 06:00:16;;;;;;;5.28;1.70;;;17.90;64.20;;;;;;5083152;28;20059;-68
2021/06/14 06:02:44;;;;;;;4.68;1.70;;;17.90;64.10;;;;;;5116929;28;20056;-66
2021/06/14 06:05:12;;;;;;;2.85;1.52;;;17.90;64.10;;;;;;5117332;28;20052;-66
2021/06/14 06:07:40;;;;;;;1.95;1.65;;;18.00;64.10;;;;;;5117923;28;20055;-69
2021/06/14 06:10:11;;;;;;;3.55;1.80;;;18.00;64.00;;;;;;5115783;28;20074;-69
2021/06/14 06:12:39;;;;;;;2.78;1.70;;;17.90;64.00;;;;;;5097507;28;20055;-68
2021/06/14 06:15:10;;;;;;;4.47;1.65;;;17.90;64.10;;;;;;5094913;28;20063;-66
2021/06/14 06:17:38;;;;;;;2.83;1.77;;;17.90;64.20;;;;;;5096209;28;20059;-67
2021/06/14 06:20:09;;;;;;;4.68;1.90;;;17.90;64.30;;;;;;5096142;28;20381;-68
2021/06/14 06:22:38;;;;;;;5.03;1.70;;;17.80;64.30;;;;;;5096877;28;20512;-65
2021/06/14 06:25:07;;;;;;;3.65;1.88;;;17.90;64.40;;;;;;5095124;28;20051;-69
2021/06/14 06:27:35;;;;;;;2.30;1.70;;;17.80;64.50;;;;;;5096108;28;20067;-65
2021/06/14 06:30:07;;;;;;;2.90;2.05;;;17.80;64.50;;;;;;5095043;28;20074;-69
2021/06/14 06:32:35;;;;;;;5.75;2.40;;;17.90;64.50;;;;;;5096271;28;20048;-69
2021/06/14 06:35:04;;;;;;;8.77;2.67;;;17.90;64.50;;;;;;5111512;28;20047;-67
2021/06/14 06:37:32;;;;;;;2.45;1.85;;;17.80;64.50;;;;;;5098354;28;20044;-66
2021/06/14 06:40:01;;;;;;;3.90;2.00;;;17.90;64.60;;;;;;5102065;28;20509;-69
2021/06/14 06:42:30;;;;;;;3.88;1.77;;;17.80;64.60;;;;;;5113835;28;20047;-67
2021/06/14 06:44:58;;;;;;;3.05;1.60;;;17.80;64.70;;;;;;5114149;28;20047;-67
2021/06/14 06:47:26;;;;;;;2.55;1.58;;;17.80;64.90;;;;;;5109509;28;20063;-67
2021/06/14 06:49:54;;;;;;;1.58;1.33;;;17.80;65.10;;;;;;5113521;28;20047;-67
2021/06/14 06:52:22;;;;;;;1.55;1.35;;;17.80;65.20;;;;;;5101688;28;20053;-67
2021/06/14 06:54:49;;;;;;;2.72;1.70;;;17.80;65.30;;;;;;5078748;28;20040;-68
2021/06/14 06:57:20;;;;;;;3.22;1.65;;;17.80;65.30;;;;;;5097458;28;20057;-68
2021/06/14 06:59:48;;;;;;;2.33;1.38;;;17.90;65.40;;;;;;5104053;28;20055;-69
2021/06/14 07:02:16;;;;;;;4.13;1.17;;;17.90;65.40;;;;;;5102001;28;20454;-67
2021/06/14 07:04:48;;;;;;;2.25;1.38;;;17.90;65.50;;;;;;5107700;28;20044;-67
2021/06/14 07:07:17;;;;;;;3.10;1.58;;;18.00;65.30;;;;;;5099433;28;20063;-66
2021/06/14 07:09:48;;;;;;;2.20;1.50;;;18.00;65.20;;;;;;5080417;28;20047;-67
2021/06/14 07:12:16;;;;;;;3.63;1.60;;;18.00;65.20;;;;;;5127762;27;20054;-70
2021/06/14 07:14:44;;;;;;;4.18;1.40;;;18.10;65.00;;;;;;5110259;28;20039;-67
2021/06/14 07:17:12;;;;;;;3.38;1.38;;;18.10;65.10;;;;;;5104137;28;20055;-66
2021/06/14 07:19:40;;;;;;;2.35;1.50;;;18.20;65.10;;;;;;5120769;27;20055;-66
2021/06/14 07:22:09;;;;;;;3.55;1.48;;;18.30;64.90;;;;;;5135533;27;20055;-70
2021/06/14 07:24:36;;;;;;;2.95;1.42;;;18.30;64.70;;;;;;5131648;27;20063;-69
2021/06/14 07:27:05;;;;;;;3.70;1.45;;;18.40;64.50;;;;;;5098278;28;20048;-69
2021/06/14 07:29:33;;;;;;;3.33;1.70;;;18.50;64.70;;;;;;5119110;27;20055;-68
2021/06/14 07:32:01;;;;;;;2.70;1.33;;;18.50;64.70;;;;;;5131487;27;20469;-69
2021/06/14 07:34:29;;;;;;;6.60;2.00;;;18.60;64.60;;;;;;5119004;27;20039;-66
2021/06/14 07:36:58;;;;;;;2.42;1.67;;;18.60;64.60;;;;;;5119849;27;20058;-68
2021/06/14 07:39:26;;;;;;;3.88;1.75;;;18.70;64.50;;;;;;5114279;27;20051;-65
2021/06/14 07:41:54;;;;;;;3.22;1.58;;;18.70;64.50;;;;;;5133306;27;20400;-66
2021/06/14 07:44:22;;;;;;;4.05;1.80;;;18.70;64.40;;;;;;5128754;27;20050;-68
2021/06/14 07:46:53;;;;;;;1.85;1.58;;;18.70;64.40;;;;;;5106986;27;20069;-67
2021/06/14 07:49:21;;;;;;;2.85;1.70;;;18.80;64.40;;;;;;5120191;27;20048;-67
2021/06/14 07:51:50;;;;;;;4.05;1.83;;;18.70;64.50;;;;;;5098219;28;20052;-66
2021/06/14 07:54:18;;;;;;;5.90;2.28;;;18.80;64.60;;;;;;5115299;27;20066;-67
2021/06/14 07:56:47;;;;;;;4.03;1.65;;;18.80;64.60;;;;;;5125315;27;20055;-66
2021/06/14 07:59:16;;;;;;;5.35;1.70;;;18.80;64.60;;;;;;5111898;27;20113;-68
2021/06/14 08:01:44;;;;;;;5.57;2.00;;;18.80;64.60;;;;;;5116523;27;20055;-67
2021/06/14 08:04:13;;;;;;;6.57;1.80;;;18.90;64.70;;;;;;5119445;27;20070;-67
2021/06/14 08:06:44;;;;;;;7.78;2.22;;;18.90;64.70;;;;;;5115669;28;20044;-67
2021/06/14 08:09:19;;;;;;;5.70;1.90;;;19.00;64.60;;;;;;5114006;28;20044;-68
2021/06/14 08:11:47;;;;;;;8.55;2.10;;;19.00;64.40;;;;;;5093870;28;20055;-68
2021/06/14 08:14:15;;;;;;;5.85;1.83;;;19.00;64.40;;;;;;5113679;28;20054;-67
2021/06/14 08:16:44;;;;;;;4.78;2.15;;;19.10;64.40;;;;;;5113352;28;20047;-66
2021/06/14 08:19:31;;;;;;;12.05;2.53;;;19.20;64.40;;;;;;5099826;28;20056;-66
2021/06/14 08:27:35;;;;;;;4.88;1.98;;;19.30;64.30;;;;;;5077004;28;20048;-66
2021/06/14 08:30:09;;;;;;;5.30;2.13;;;19.30;64.20;;;;;;5093971;28;20044;-67
2021/06/14 08:32:39;;;;;;;3.85;2.05;;;19.30;64.20;;;;;;5105689;28;20044;-69
2021/06/14 08:35:13;;;;;;;8.02;2.10;;;19.30;64.20;;;;;;5104570;28;20047;-67
2021/06/14 08:37:43;;;;;;;10.43;3.72;;;19.30;64.20;;;;;;5103275;28;20083;-69
2021/06/14 08:40:14;;;;;;;12.45;3.83;;;19.30;64.30;;;;;;5112890;28;20062;-67
2021/06/14 08:42:42;;;;;;;7.22;3.05;;;19.20;64.80;;;;;;5093546;28;20059;-67
2021/06/14 08:45:14;;;;;;;6.95;3.13;;;19.10;65.30;;;;;;5104298;28;20071;-68
2021/06/14 08:47:43;;;;;;;6.07;2.80;;;19.00;65.80;;;;;;5073657;28;20044;-68
2021/06/14 08:50:14;;;;;;;9.18;2.85;;;18.90;66.40;;;;;;5085462;28;20054;-66
2021/06/14 08:52:43;;;;;;;3.78;2.03;;;18.80;67.10;;;;;;5107472;28;20048;-66
2021/06/14 08:55:14;;;;;;;3.35;1.83;;;18.70;67.70;;;;;;5103369;28;20066;-68
2021/06/14 08:57:42;;;;;;;2.90;1.73;;;18.70;68.30;;;;;;5113394;28;20055;-69
2021/06/14 09:00:16;;;;;;;8.45;1.90;;;18.60;68.70;;;;;;5111388;28;20552;-68
2021/06/14 09:02:45;;;;;;;4.72;2.55;;;18.50;69.20;;;;;;5126768;28;20054;-69
2021/06/14 09:05:16;;;;;;;4.13;1.60;;;18.40;69.60;;;;;;5113136;28;20043;-66
2021/06/14 09:07:44;;;;;;;3.85;1.40;;;18.30;70.00;;;;;;5103553;28;20055;-69
2021/06/14 09:10:29;;;;;;;3.20;1.80;;;18.30;70.40;;;;;;5114187;28;20062;-67
2021/06/14 09:13:19;;;;;;;3.42;1.90;;;18.30;71.00;;;;;;5101865;28;20051;-68
2021/06/14 09:16:10;;;;;;;4.03;2.88;;;18.20;71.40;;;;;;5116402;28;20055;-68
2021/06/14 09:18:40;;;;;;;4.55;2.90;;;18.10;71.70;;;;;;5101144;28;20225;-68
2021/06/14 09:21:18;;;;;;;8.90;3.47;;;18.00;72.50;;;;;;5096097;28;20056;-66
2021/06/14 09:23:52;;;;;;;7.75;3.78;;;17.90;73.20;;;;;;5097858;28;20074;-67
2021/06/14 09:26:32;;;;;;;5.55;4.20;;;17.80;74.10;;;;;;5097615;28;20052;-69
2021/06/14 09:29:05;;;;;;;6.03;5.43;;;17.80;75.10;;;;;;5081071;28;20404;-68
2021/06/14 09:31:45;;;;;;;7.22;6.60;;;17.70;75.10;;;;;;5097103;28;20588;-67
2021/06/14 09:34:15;;;;;;;7.90;7.20;;;17.60;75.50;;;;;;5101262;28;20048;-68
2021/06/14 09:36:59;;;;;;;11.82;7.75;;;17.50;75.60;;;;;;5100507;28;20484;-69
2021/06/14 09:39:34;;;;;;;10.23;8.65;;;17.50;75.90;;;;;;5096741;28;20052;-68
2021/06/14 09:42:31;;;;;;;11.50;9.10;;;17.40;75.80;;;;;;5113457;28;20058;-65
2021/06/14 09:45:06;;;;;;;8.60;7.70;;;17.40;76.10;;;;;;5117215;28;20043;-67
2021/06/14 09:47:34;;;;;;;8.07;7.47;;;17.40;76.20;;;;;;5101436;28;20067;-68
2021/06/14 09:50:08;;;;;;;8.48;7.65;;;17.30;76.20;;;;;;5100221;28;20048;-68
2021/06/14 09:52:36;;;;;;;9.60;7.53;;;17.40;76.30;;;;;;5107448;28;20051;-68
2021/06/14 09:55:17;;;;;;;7.63;6.88;;;17.30;76.30;;;;;;5095527;28;20485;-66
2021/06/14 09:57:45;;;;;;;9.40;8.00;;;17.30;76.40;;;;;;5096061;28;20355;-68
2021/06/14 10:00:15;;;;;;;8.02;7.18;;;17.30;76.40;;;;;;5096750;28;20481;-67
2021/06/14 10:02:45;;;;;;;6.10;5.57;;;17.20;76.80;;;;;;5095607;28;20063;-69
2021/06/14 10:05:16;;;;;;;6.28;4.75;;;17.10;76.90;;;;;;5096446;28;20066;-67
2021/06/14 10:07:49;;;;;;;4.97;2.78;;;17.10;77.10;;;;;;5096296;28;20048;-67
2021/06/14 10:10:21;;;;;;;;;;;17.00;77.20;;;;;;5097128;28;20047;-65
2021/06/14 10:12:56;;;;;;;6.57;1.65;;;17.00;77.10;;;;;;5117722;28;19920;-69
2021/06/14 10:15:32;;;;;;;7.45;1.60;;;17.00;77.00;;;;;;5116724;28;20044;-66
2021/06/14 10:18:00;;;;;;;1.95;1.40;;;16.90;77.10;;;;;;5100090;28;20047;-66
2021/06/14 10:20:30;;;;;;;2.22;1.27;;;16.80;77.10;;;;;;5098995;28;20062;-68
2021/06/14 10:23:00;;;;;;;2.45;1.40;;;16.80;77.20;;;;;;5098806;28;20062;-67
2021/06/14 10:25:35;;;;;;;1.83;1.20;;;16.80;77.30;;;;;;5116801;28;20381;-69
2021/06/14 10:28:05;;;;;;;1.52;1.00;;;16.80;77.30;;;;;;5081656;28;20044;-68
2021/06/14 10:30:33;;;;;;;2.92;1.48;;;16.70;77.30;;;;;;5119694;27;20358;-68
2021/06/14 10:33:03;;;;;;;2.47;1.25;;;16.70;77.40;;;;;;5098497;28;20381;-67
2021/06/14 10:35:34;;;;;;;3.97;1.00;;;16.70;77.40;;;;;;5117021;27;20048;-65
2021/06/14 10:38:05;;;;;;;2.55;1.20;;;16.60;77.20;;;;;;5126987;27;20047;-66
2021/06/14 10:40:35;;;;;;;1.98;0.90;;;16.60;77.10;;;;;;5119096;27;20043;-68
2021/06/14 10:43:05;;;;;;;3.50;0.80;;;16.60;76.70;;;;;;5136420;27;20388;-67
2021/06/14 10:45:33;;;;;;;6.85;1.55;;;16.60;76.40;;;;;;5119164;27;20051;-68
2021/06/14 10:48:02;;;;;;;3.22;1.00;;;16.60;76.20;;;;;;5136364;27;20051;-69
2021/06/14 10:50:33;;;;;;;2.72;1.00;;;16.60;76.00;;;;;;5137099;27;20047;-67
2021/06/14 10:53:02;;;;;;;3.08;1.30;;;16.60;75.70;;;;;;5137504;27;20457;-68
2021/06/14 10:55:37;;;;;;;4.50;1.08;;;16.60;75.40;;;;;;5123413;27;20058;-69
2021/06/14 10:58:16;;;;;;;7.25;1.10;;;16.60;75.20;;;;;;5116582;28;20055;-66
2021/06/14 11:00:44;;;;;;;1.67;1.00;;;16.60;75.00;;;;;;5116612;28;20056;-69
2021/06/14 11:03:14;;;;;;;1.10;0.90;;;16.70;74.60;;;;;;5097857;28;20461;-67
2021/06/14 11:05:46;;;;;;;4.30;1.05;;;16.70;74.30;;;;;;5098460;28;20043;-70
2021/06/14 11:08:18;;;;;;;4.60;0.80;;;16.80;73.90;;;;;;5114607;28;20055;-68
2021/06/14 11:10:50;;;;;;;;;;;16.80;73.40;;;;;;5123151;27;20043;-68
2021/06/14 11:13:18;;;;;;;2.30;0.80;;;16.80;73.10;;;;;;5137093;27;19919;-66
2021/06/14 11:15:48;;;;;;;1.23;0.80;;;16.80;72.60;;;;;;5128535;27;20052;-69
2021/06/14 11:18:25;;;;;;;4.65;1.00;;;16.90;72.10;;;;;;5121762;27;20405;-69
2021/06/14 11:21:14;;;;;;;2.53;1.08;;;16.90;71.70;;;;;;5115247;28;20063;-67
2021/06/14 11:23:44;;;;;;;2.75;1.02;;;17.00;71.40;;;;;;5115189;28;20047;-68
2021/06/14 11:26:24;;;;;;;3.28;0.70;;;17.00;71.10;;;;;;5115299;28;20078;-65
2021/06/14 11:28:52;;;;;;;4.68;1.00;;;17.00;70.80;;;;;;5114215;28;20044;-68
2021/06/14 11:31:26;;;;;;;1.75;0.90;;;17.10;70.70;;;;;;5097227;28;20050;-68
2021/06/14 11:34:02;;;;;;;3.35;0.90;;;17.20;70.50;;;;;;5114534;28;20051;-68
2021/06/14 11:36:35;;;;;;;3.30;1.00;;;17.30;70.20;;;;;;5113855;28;20056;-66
2021/06/14 11:39:14;;;;;;;2.80;0.80;;;17.30;69.80;;;;;;5115086;28;20058;-66
2021/06/14 11:41:44;;;;;;;5.20;1.05;;;17.30;69.40;;;;;;5114073;28;20052;-65
2021/06/14 11:44:32;;;;;;;5.60;1.13;;;17.30;69.40;;;;;;5114983;28;20051;-64
2021/06/14 11:47:16;;;;;;;4.30;1.10;;;17.30;68.90;;;;;;5114835;28;20066;-66
2021/06/14 11:49:46;;;;;;;7.15;1.30;;;17.30;68.60;;;;;;5096247;28;20469;-69
2021/06/14 11:52:27;;;;;;;6.97;1.35;;;17.30;68.60;;;;;;5114724;28;20052;-65
2021/06/14 11:54:57;;;;;;;5.63;1.60;;;17.40;68.30;;;;;;5096139;28;20486;-65
2021/06/14 11:57:35;;;;;;;6.13;1.50;;;17.40;67.80;;;;;;5080322;28;20047;-67
2021/06/14 12:00:11;;;;;;;6.20;1.65;;;17.50;67.30;;;;;;5096532;28;20066;-68
2021/06/14 12:02:40;;;;;;;7.07;1.75;;;17.60;66.50;;;;;;5112625;28;20374;-64
2021/06/14 12:05:11;;;;;;;3.55;1.40;;;17.60;66.00;;;;;;5114750;28;20054;-66
2021/06/14 12:07:42;;;;;;;5.93;1.50;;;17.60;65.60;;;;;;5080817;28;20060;-68
2021/06/14 12:10:16;;;;;;;3.60;1.50;;;17.70;65.30;;;;;;5113591;28;20059;-67
2021/06/14 12:12:46;;;;;;;7.53;1.35;;;17.70;65.10;;;;;;5094101;28;20063;-66
2021/06/14 12:15:15;;;;;;;6.35;1.30;;;17.70;65.00;;;;;;5093141;28;20063;-64
2021/06/14 12:17:48;;;;;;;3.85;1.48;;;17.70;64.70;;;;;;5093749;28;20052;-68
2021/06/14 12:20:23;;;;;;;6.55;1.73;;;17.70;64.40;;;;;;5093334;28;20052;-67
2021/06/14 12:23:02;;;;;;;5.65;1.73;;;17.80;64.10;;;;;;5093209;28;20359;-66
2021/06/14 12:25:32;;;;;;;8.70;1.67;;;17.80;63.80;;;;;;5094077;28;20482;-66
2021/06/14 12:28:03;;;;;;;4.18;1.55;;;17.80;63.70;;;;;;5092922;28;20058;-66
2021/06/14 12:30:32;;;;;;;4.90;1.60;;;17.90;63.70;;;;;;5093864;28;20106;-68
2021/06/14 12:33:00;;;;;;;5.00;1.58;;;18.10;63.60;;;;;;5096516;28;20044;-65
2021/06/14 12:35:29;;;;;;;6.28;1.80;;;18.10;63.30;;;;;;5091586;28;20732;-65
2021/06/14 12:38:06;;;;;;;7.22;1.90;;;18.30;62.90;;;;;;5093709;28;20469;-68
2021/06/14 12:40:36;;;;;;;6.47;1.15;;;18.30;62.60;;;;;;5097713;28;20059;-65
2021/06/14 12:43:06;;;;;;;5.32;1.40;;;18.50;62.40;;;;;;5113259;28;20067;-68
2021/06/14 12:45:34;;;;;;;4.40;1.30;;;18.50;61.90;;;;;;5118383;28;20059;-65
2021/06/14 12:48:09;;;;;;;7.53;1.50;;;18.60;61.50;;;;;;5117271;28;20047;-68
2021/06/14 12:50:42;;;;;;;5.97;1.50;;;18.70;61.40;;;;;;5117349;28;20433;-66
2021/06/14 12:53:10;;;;;;;3.25;1.10;;;18.80;61.10;;;;;;5118334;28;20074;-64
2021/06/14 12:55:41;;;;;;;8.32;1.70;;;18.80;60.80;;;;;;5106876;28;20044;-66
2021/06/14 12:58:17;;;;;;;9.35;1.38;;;18.90;60.40;;;;;;5097895;28;20059;-67
2021/06/14 13:00:54;;;;;;;5.15;1.30;;;19.00;60.00;;;;;;5098699;28;20040;-69
2021/06/14 13:03:36;;;;;;;9.45;1.63;;;19.10;59.70;;;;;;5095324;28;20389;-66
2021/06/14 13:06:05;;;;;;;7.07;1.40;;;19.20;59.50;;;;;;5097978;28;20056;-69
2021/06/14 13:08:41;;;;;;;5.40;0.98;;;19.30;59.30;;;;;;5096578;28;20066;-69
2021/06/14 13:11:11;;;;;;;5.30;1.30;;;19.50;58.90;;;;;;5096237;28;20492;-68
2021/06/14 13:13:47;;;;;;;8.60;1.10;;;19.70;58.60;;;;;;5097441;28;20067;-68
2021/06/14 13:16:20;;;;;;;4.57;1.60;;;19.80;57.90;;;;;;5095557;28;20055;-66